Time;durP1;ratioP1;P1;durP2;ratioP2;P2;SDS_P1;SDS_P2;PMS_P1;PMS_P2;Temp;Humidity;BMP_temperature;BMP_pressure;BME280_temperature;BME280_humidity;BME280_pressure;Samples;Min_cycle;Max_cycle;Signal;HPM_P1;HPM_P2
2022/09/19 00:02:16;;;;;;;6.60;6.20;;;10.80;99.90;;;;;;4942789;29;20231;-78
2022/09/19 00:04:43;;;;;;;6.50;6.10;;;10.80;99.90;;;;;;4942587;28;20200;-77
2022/09/19 00:07:11;;;;;;;6.93;6.40;;;10.80;99.90;;;;;;4942989;29;20660;-78
2022/09/19 00:09:38;;;;;;;6.43;5.93;;;10.80;99.90;;;;;;4942610;29;20465;-77
2022/09/19 00:12:05;;;;;;;6.47;6.07;;;10.70;99.90;;;;;;4960211;28;20282;-77
2022/09/19 00:14:35;;;;;;;5.70;5.40;;;10.60;99.90;;;;;;4942764;29;20215;-77
2022/09/19 00:17:04;;;;;;;6.00;5.70;;;10.40;99.90;;;;;;4936713;29;20679;-78
2022/09/19 00:19:31;;;;;;;5.60;5.30;;;10.40;99.90;;;;;;4984610;23;20229;-81
2022/09/19 00:22:00;;;;;;;5.53;5.23;;;10.20;99.90;;;;;;4990616;28;20616;-81
2022/09/19 00:24:46;;;;;;;5.60;5.20;;;10.20;99.90;;;;;;4971374;28;20194;-81
2022/09/19 00:27:15;;;;;;;5.70;5.40;;;10.10;99.90;;;;;;4976133;28;20213;-81
2022/09/19 00:29:42;;;;;;;5.70;5.40;;;10.10;99.90;;;;;;4965497;28;20218;-81
2022/09/19 00:32:12;;;;;;;5.40;5.20;;;10.00;99.90;;;;;;4954407;28;20285;-82
2022/09/19 00:34:40;;;;;;;5.50;5.20;;;10.00;99.90;;;;;;4956725;28;20233;-81
2022/09/19 00:37:07;;;;;;;5.50;5.30;;;10.00;99.90;;;;;;4956915;28;20202;-81
2022/09/19 00:39:36;;;;;;;5.70;5.40;;;10.00;99.90;;;;;;4956588;28;20253;-81
2022/09/19 00:42:03;;;;;;;5.40;5.10;;;10.00;99.90;;;;;;4953697;28;20209;-80
2022/09/19 00:44:56;;;;;;;5.60;5.30;;;9.90;99.90;;;;;;4957870;28;20671;-81
2022/09/19 00:47:29;;;;;;;5.60;5.30;;;9.90;99.90;;;;;;4976785;28;20234;-81
2022/09/19 00:50:00;;;;;;;5.80;5.50;;;9.90;99.90;;;;;;4977753;28;20245;-81
2022/09/19 00:52:33;;;;;;;6.50;6.20;;;9.90;99.90;;;;;;4972216;28;20741;-82
2022/09/19 00:55:02;;;;;;;5.67;5.37;;;9.90;99.90;;;;;;4956670;28;20245;-81
2022/09/19 00:57:39;;;;;;;5.60;5.30;;;9.80;99.90;;;;;;4972962;28;20249;-81
2022/09/19 01:00:07;;;;;;;5.50;5.30;;;9.80;99.90;;;;;;4955521;28;20213;-82
2022/09/19 01:02:34;;;;;;;5.33;5.03;;;9.80;99.90;;;;;;4968224;28;20632;-81
2022/09/19 01:05:03;;;;;;;5.50;5.30;;;9.80;99.90;;;;;;4952391;29;20195;-81
2022/09/19 01:07:43;;;;;;;5.50;5.20;;;9.80;99.90;;;;;;4941855;29;20648;-80
2022/09/19 01:10:23;;;;;;;5.80;5.50;;;9.80;99.90;;;;;;4939927;29;20222;-81
2022/09/19 01:12:59;;;;;;;5.90;5.60;;;9.80;99.90;;;;;;4957303;28;20281;-81
2022/09/19 01:15:38;;;;;;;5.60;5.30;;;9.80;99.90;;;;;;4944622;28;20608;-81
2022/09/19 01:18:07;;;;;;;5.97;5.67;;;9.80;99.90;;;;;;4951187;28;20203;-81
2022/09/19 01:20:58;;;;;;;5.80;5.50;;;9.70;99.90;;;;;;4958324;28;20222;-81
2022/09/19 01:23:44;;;;;;;5.77;5.47;;;9.80;99.90;;;;;;4969291;28;20660;-81
2022/09/19 01:26:32;;;;;;;5.90;5.60;;;9.70;99.90;;;;;;4953878;28;20200;-81
2022/09/19 01:29:07;;;;;;;5.90;5.60;;;9.60;99.90;;;;;;4959687;28;20292;-81
2022/09/19 01:31:38;;;;;;;5.80;5.50;;;9.60;99.90;;;;;;4957116;28;20710;-81
2022/09/19 01:34:11;;;;;;;5.87;5.57;;;9.50;99.90;;;;;;4951458;28;20206;-81
2022/09/19 01:36:46;;;;;;;5.90;5.60;;;9.50;99.90;;;;;;4945486;28;20692;-81
2022/09/19 01:39:15;;;;;;;6.00;5.70;;;9.50;99.90;;;;;;4950361;28;20250;-80
2022/09/19 01:41:50;;;;;;;5.80;5.50;;;9.50;99.90;;;;;;4952780;29;20682;-81
2022/09/19 01:44:22;;;;;;;6.60;6.20;;;9.40;99.90;;;;;;4955253;28;20206;-81
2022/09/19 01:47:06;;;;;;;6.10;5.80;;;9.30;99.90;;;;;;4948767;29;20678;-81
2022/09/19 01:49:43;;;;;;;6.00;5.70;;;9.30;99.90;;;;;;4945444;29;20226;-81
2022/09/19 01:52:22;;;;;;;6.30;6.00;;;9.20;99.90;;;;;;4955190;28;20205;-81
2022/09/19 01:54:57;;;;;;;6.50;6.10;;;9.10;99.90;;;;;;4977169;28;20260;-82
2022/09/19 01:57:39;;;;;;;6.10;5.80;;;9.10;99.90;;;;;;4954747;28;20201;-81
2022/09/19 02:00:14;;;;;;;6.00;5.70;;;9.10;99.90;;;;;;4952737;28;20240;-81
2022/09/19 02:03:02;;;;;;;7.10;6.70;;;9.00;99.90;;;;;;4969975;28;20637;-81
2022/09/19 02:05:38;;;;;;;6.03;5.73;;;8.90;99.90;;;;;;4954181;28;20198;-81
2022/09/19 02:08:10;;;;;;;5.80;5.50;;;8.90;99.90;;;;;;4953218;28;20193;-81
2022/09/19 02:10:43;;;;;;;6.23;5.93;;;8.90;99.90;;;;;;4950120;29;20219;-81
2022/09/19 02:13:12;;;;;;;6.40;6.10;;;8.80;99.90;;;;;;4951456;28;20595;-81
2022/09/19 02:16:11;;;;;;;6.20;5.90;;;8.80;99.90;;;;;;4957939;28;20226;-81
2022/09/19 02:18:44;;;;;;;6.30;6.00;;;8.80;99.90;;;;;;4962119;28;20678;-81
2022/09/19 02:21:20;;;;;;;6.30;5.90;;;8.70;99.90;;;;;;4951344;28;20230;-81
2022/09/19 02:23:53;;;;;;;6.53;6.13;;;8.70;99.90;;;;;;4960484;28;20197;-81
2022/09/19 02:26:23;;;;;;;6.50;6.20;;;8.70;99.90;;;;;;4947544;28;20199;-81
2022/09/19 02:28:55;;;;;;;7.00;6.60;;;8.60;99.90;;;;;;4949200;29;20619;-82
2022/09/19 02:31:27;;;;;;;7.17;6.77;;;8.50;99.90;;;;;;4956621;28;20803;-81
2022/09/19 02:33:58;;;;;;;7.40;7.00;;;8.60;99.90;;;;;;4946787;29;20195;-81
2022/09/19 02:36:32;;;;;;;7.60;7.20;;;8.50;99.90;;;;;;4967153;28;20648;-81
2022/09/19 02:39:08;;;;;;;7.73;7.33;;;8.50;99.90;;;;;;4951952;28;20228;-81
2022/09/19 02:42:18;;;;;;;8.10;7.70;;;8.50;99.90;;;;;;4960923;28;20205;-80
2022/09/19 02:44:59;;;;;;;8.10;7.70;;;8.50;99.90;;;;;;4950373;28;20229;-82
2022/09/19 02:47:32;;;;;;;7.80;7.30;;;8.50;99.90;;;;;;4959672;28;20255;-81
2022/09/19 02:50:02;;;;;;;7.80;7.40;;;8.50;99.90;;;;;;4953636;28;20225;-81
2022/09/19 02:52:32;;;;;;;7.60;7.20;;;8.40;99.90;;;;;;4952271;28;20744;-80
2022/09/19 02:55:11;;;;;;;8.00;7.40;;;8.50;99.90;;;;;;4962650;28;20216;-79
2022/09/19 02:57:40;;;;;;;8.10;7.70;;;8.50;99.90;;;;;;4953365;28;20201;-78
2022/09/19 03:00:08;;;;;;;7.93;7.53;;;8.40;99.90;;;;;;4961863;28;20218;-78
2022/09/19 03:02:44;;;;;;;8.00;7.60;;;8.40;99.90;;;;;;4959899;28;20385;-78
2022/09/19 03:05:14;;;;;;;7.90;7.50;;;8.50;99.90;;;;;;4956520;28;20718;-78
2022/09/19 03:07:46;;;;;;;8.60;8.20;;;8.40;99.90;;;;;;4959122;28;20365;-78
2022/09/19 03:10:20;;;;;;;8.30;7.80;;;8.40;99.90;;;;;;4956086;28;20276;-78
2022/09/19 03:12:57;;;;;;;8.30;7.90;;;8.40;99.90;;;;;;4955163;28;20208;-78
2022/09/19 03:15:32;;;;;;;8.73;8.23;;;8.40;99.90;;;;;;4955758;28;20237;-78
2022/09/19 03:18:02;;;;;;;9.30;8.70;;;8.40;99.90;;;;;;4967433;28;20214;-81
2022/09/19 03:20:30;;;;;;;9.10;8.60;;;8.30;99.90;;;;;;4950166;28;20320;-79
2022/09/19 03:22:56;;;;;;;9.00;8.40;;;8.20;99.90;;;;;;4951030;28;20237;-78
2022/09/19 03:25:27;;;;;;;8.90;8.40;;;8.20;99.90;;;;;;4947128;28;20288;-80
2022/09/19 03:27:55;;;;;;;9.10;8.60;;;8.20;99.90;;;;;;4948090;29;20232;-80
2022/09/19 03:30:23;;;;;;;9.70;9.10;;;8.20;99.90;;;;;;4957326;28;20705;-79
2022/09/19 03:32:49;;;;;;;9.30;8.70;;;8.20;99.90;;;;;;4959169;28;20209;-80
2022/09/19 03:35:19;;;;;;;8.93;8.43;;;8.20;99.90;;;;;;4953185;28;20223;-79
2022/09/19 03:37:50;;;;;;;8.20;7.70;;;8.20;99.90;;;;;;4949178;28;20197;-81
2022/09/19 03:40:22;;;;;;;8.40;8.00;;;8.20;99.90;;;;;;4947516;28;20217;-78
2022/09/19 03:42:51;;;;;;;9.53;9.00;;;8.10;99.90;;;;;;4947218;29;20205;-79
2022/09/19 03:45:20;;;;;;;9.50;9.00;;;8.10;99.90;;;;;;4943884;28;20213;-79
2022/09/19 03:47:47;;;;;;;10.17;9.57;;;8.10;99.90;;;;;;4951287;29;20212;-79
2022/09/19 03:50:14;;;;;;;10.50;9.90;;;8.00;99.90;;;;;;4947979;28;20655;-78
2022/09/19 03:53:00;;;;;;;10.67;10.07;;;8.00;99.90;;;;;;4957464;28;20284;-79
2022/09/19 03:55:27;;;;;;;10.03;9.53;;;8.00;99.90;;;;;;4959266;28;20206;-79
2022/09/19 03:57:55;;;;;;;10.00;9.50;;;8.00;99.90;;;;;;4937410;29;20201;-78
2022/09/19 04:00:22;;;;;;;10.40;9.80;;;8.00;99.90;;;;;;4945452;28;20219;-78
2022/09/19 04:02:52;;;;;;;10.20;9.70;;;7.90;99.90;;;;;;4945935;29;20586;-79
2022/09/19 04:05:19;;;;;;;10.80;10.20;;;7.90;99.90;;;;;;4952021;28;20231;-78
2022/09/19 04:07:47;;;;;;;10.70;10.10;;;7.80;99.90;;;;;;4951935;29;20257;-79
2022/09/19 04:10:18;;;;;;;10.93;10.33;;;7.80;99.90;;;;;;4953770;28;20235;-78
2022/09/19 04:12:48;;;;;;;11.50;10.90;;;7.80;99.90;;;;;;4948077;28;20208;-78
2022/09/19 04:15:16;;;;;;;11.60;11.00;;;7.90;99.90;;;;;;4942312;28;20237;-79
2022/09/19 04:17:44;;;;;;;11.20;10.50;;;7.80;99.90;;;;;;4944727;29;20197;-79
2022/09/19 04:20:14;;;;;;;11.00;10.40;;;7.80;99.90;;;;;;4953340;28;20320;-79
2022/09/19 04:22:56;;;;;;;10.10;9.30;;;7.80;99.90;;;;;;4970579;28;20619;-79
2022/09/19 04:25:36;;;;;;;10.23;9.63;;;7.80;99.90;;;;;;4949076;29;20197;-79
2022/09/19 04:28:07;;;;;;;10.40;9.77;;;7.80;99.90;;;;;;4951834;28;20733;-79
2022/09/19 04:30:37;;;;;;;11.30;10.60;;;7.70;99.90;;;;;;4946310;29;20224;-79
2022/09/19 04:33:06;;;;;;;10.43;9.73;;;7.70;99.90;;;;;;4954741;28;20206;-79
2022/09/19 04:35:35;;;;;;;10.63;10.03;;;7.80;99.90;;;;;;4950443;28;20220;-79
2022/09/19 04:38:04;;;;;;;10.23;9.60;;;7.80;99.90;;;;;;4950124;28;20216;-79
2022/09/19 04:40:31;;;;;;;10.67;10.03;;;7.90;99.90;;;;;;4967007;28;20219;-79
2022/09/19 04:43:00;;;;;;;10.47;9.77;;;7.90;99.90;;;;;;4943983;29;20201;-79
2022/09/19 04:45:27;;;;;;;10.03;9.43;;;7.90;99.90;;;;;;4956172;29;20221;-79
2022/09/19 04:48:07;;;;;;;10.33;9.70;;;7.90;99.90;;;;;;4957828;28;20286;-79
2022/09/19 04:50:35;;;;;;;10.67;9.87;;;7.90;99.90;;;;;;4946211;29;20220;-80
2022/09/19 04:53:03;;;;;;;10.30;9.63;;;8.00;99.90;;;;;;4954434;28;20246;-79
2022/09/19 04:55:31;;;;;;;10.23;9.53;;;7.90;99.90;;;;;;4951804;28;20225;-79
2022/09/19 04:58:00;;;;;;;10.00;9.40;;;7.90;99.90;;;;;;4954161;28;20628;-79
2022/09/19 05:00:40;;;;;;;10.40;9.70;;;8.00;99.90;;;;;;4951946;28;20298;-79
2022/09/19 05:03:15;;;;;;;10.30;9.50;;;8.10;99.90;;;;;;4952829;28;20233;-79
2022/09/19 05:05:45;;;;;;;10.17;9.57;;;8.10;99.90;;;;;;4953763;28;20198;-79
2022/09/19 05:08:19;;;;;;;10.33;9.70;;;8.10;99.90;;;;;;4950079;28;20587;-79
2022/09/19 05:10:46;;;;;;;9.80;9.20;;;8.10;99.90;;;;;;4951883;28;20571;-78
2022/09/19 05:13:15;;;;;;;10.20;9.60;;;8.20;99.90;;;;;;4951467;28;20212;-79
2022/09/19 05:15:44;;;;;;;10.13;9.37;;;8.20;99.90;;;;;;4960246;28;20213;-78
2022/09/19 05:18:11;;;;;;;10.20;9.60;;;8.20;99.90;;;;;;4969505;28;20272;-78
2022/09/19 05:20:39;;;;;;;10.53;9.83;;;8.20;99.90;;;;;;4952924;28;20491;-79
2022/09/19 05:23:07;;;;;;;10.17;9.57;;;8.20;99.90;;;;;;4952347;28;20236;-79
2022/09/19 05:25:38;;;;;;;10.23;9.53;;;8.20;99.90;;;;;;4951220;28;20588;-79
2022/09/19 05:28:06;;;;;;;10.40;9.70;;;8.30;99.90;;;;;;4950842;28;20201;-78
2022/09/19 05:30:38;;;;;;;10.40;9.80;;;8.30;99.90;;;;;;4955501;28;20277;-79
2022/09/19 05:33:06;;;;;;;10.70;9.80;;;8.30;99.90;;;;;;4946623;28;20225;-78
2022/09/19 05:35:40;;;;;;;10.23;9.53;;;8.30;99.90;;;;;;4952630;29;20249;-78
2022/09/19 05:38:20;;;;;;;10.27;9.57;;;8.40;99.90;;;;;;4954887;28;20272;-80
2022/09/19 05:41:17;;;;;;;10.30;9.60;;;8.40;99.90;;;;;;4950748;28;20206;-78
2022/09/19 05:43:51;;;;;;;9.90;9.40;;;8.40;99.90;;;;;;4954187;29;20202;-78
2022/09/19 05:46:20;;;;;;;10.33;9.63;;;8.50;99.90;;;;;;4964919;28;20194;-78
2022/09/19 05:48:49;;;;;;;9.53;8.93;;;8.50;99.90;;;;;;4951678;28;20212;-78
2022/09/19 05:51:16;;;;;;;9.70;9.10;;;8.50;99.90;;;;;;4948534;28;20667;-79
2022/09/19 05:53:56;;;;;;;9.60;9.00;;;8.60;99.90;;;;;;4951025;28;20561;-78
2022/09/19 05:56:50;;;;;;;10.03;9.43;;;8.60;99.90;;;;;;4942853;28;20336;-78
2022/09/19 05:59:20;;;;;;;10.50;9.60;;;8.70;99.90;;;;;;4977101;28;20213;-78
2022/09/19 06:01:51;;;;;;;10.07;9.27;;;8.70;99.90;;;;;;4952231;29;20209;-79
2022/09/19 06:04:44;;;;;;;9.80;9.20;;;8.70;99.90;;;;;;4963028;28;20208;-80
2022/09/19 06:07:11;;;;;;;9.90;9.30;;;8.80;99.90;;;;;;4955978;28;20271;-80
2022/09/19 06:09:38;;;;;;;9.80;9.20;;;8.80;99.90;;;;;;4974313;28;20665;-79
2022/09/19 06:12:06;;;;;;;10.10;9.30;;;8.90;99.90;;;;;;4975235;28;20261;-80
2022/09/19 06:14:35;;;;;;;10.10;9.30;;;9.00;99.90;;;;;;4954544;28;20248;-78
2022/09/19 06:17:05;;;;;;;9.63;9.03;;;9.00;99.90;;;;;;4950750;28;20210;-80
2022/09/19 06:19:36;;;;;;;9.97;9.37;;;9.10;99.90;;;;;;4954018;28;20225;-81
2022/09/19 06:22:11;;;;;;;9.63;8.93;;;9.10;99.90;;;;;;4951530;28;20229;-80
2022/09/19 06:24:39;;;;;;;10.50;9.53;;;9.20;99.90;;;;;;4960455;28;20194;-80
2022/09/19 06:27:08;;;;;;;9.87;9.23;;;9.20;99.90;;;;;;4949407;28;20201;-81
2022/09/19 06:29:39;;;;;;;10.10;9.40;;;9.40;99.90;;;;;;4953143;29;20233;-80
2022/09/19 06:32:26;;;;;;;9.63;9.03;;;9.40;99.90;;;;;;4973380;28;20625;-81
2022/09/19 06:35:20;;;;;;;9.70;9.10;;;9.50;99.90;;;;;;4969824;28;20204;-80
2022/09/19 06:37:47;;;;;;;9.03;8.43;;;9.70;99.90;;;;;;4971850;28;20237;-80
2022/09/19 06:40:18;;;;;;;9.97;9.27;;;9.70;99.90;;;;;;4952748;28;20214;-80
2022/09/19 06:43:01;;;;;;;9.33;8.63;;;9.70;99.90;;;;;;4953002;28;20213;-80
2022/09/19 06:45:41;;;;;;;10.07;9.20;;;9.80;99.90;;;;;;4962934;28;20265;-80
2022/09/19 06:48:43;;;;;;;9.43;8.83;;;9.80;99.90;;;;;;4954586;28;20292;-80
2022/09/19 06:51:36;;;;;;;9.97;9.37;;;9.90;99.90;;;;;;4934309;28;20656;-80
2022/09/19 06:54:05;;;;;;;10.27;9.47;;;10.00;99.90;;;;;;4952258;28;20637;-80
2022/09/19 06:56:32;;;;;;;9.87;9.10;;;10.00;99.90;;;;;;4943178;28;20303;-80
2022/09/19 06:58:59;;;;;;;10.50;9.90;;;10.10;99.90;;;;;;4963787;28;20239;-81
2022/09/19 07:01:26;;;;;;;9.53;8.80;;;10.20;99.90;;;;;;4953067;28;20863;-80
2022/09/19 07:03:55;;;;;;;9.70;9.10;;;10.40;99.90;;;;;;4953289;28;20206;-80
2022/09/19 07:06:34;;;;;;;10.50;9.60;;;10.40;99.90;;;;;;4949067;28;20236;-79
2022/09/19 07:09:06;;;;;;;10.10;9.50;;;10.40;99.90;;;;;;4952852;28;20219;-81
2022/09/19 07:11:35;;;;;;;10.03;9.43;;;10.50;99.90;;;;;;4951860;28;20269;-81
2022/09/19 07:14:03;;;;;;;10.10;9.40;;;10.50;99.90;;;;;;4968906;28;20187;-80
2022/09/19 07:16:30;;;;;;;10.13;9.43;;;10.50;99.90;;;;;;4956160;29;20215;-80
2022/09/19 07:18:59;;;;;;;10.33;9.50;;;10.50;99.90;;;;;;4955772;28;20231;-81
2022/09/19 07:21:38;;;;;;;10.13;9.43;;;10.60;99.90;;;;;;4969131;28;20257;-81
2022/09/19 07:24:11;;;;;;;10.30;9.50;;;10.60;99.90;;;;;;4954101;28;20230;-81
2022/09/19 07:27:04;;;;;;;9.57;8.93;;;10.70;99.90;;;;;;4948209;28;20202;-80
2022/09/19 07:29:32;;;;;;;10.60;9.80;;;10.80;99.90;;;;;;4953276;28;20222;-80
2022/09/19 07:32:01;;;;;;;10.10;9.27;;;10.80;99.90;;;;;;4952993;29;20226;-81
2022/09/19 07:34:32;;;;;;;9.63;8.97;;;10.80;99.90;;;;;;4953357;28;20204;-80
2022/09/19 07:36:59;;;;;;;10.73;9.93;;;10.90;99.90;;;;;;4960513;28;20525;-81
2022/09/19 07:39:27;;;;;;;10.30;9.57;;;10.80;99.90;;;;;;4961323;28;20446;-80
2022/09/19 07:42:33;;;;;;;9.40;8.70;;;10.90;99.90;;;;;;4945570;28;21070;-80
2022/09/19 07:45:16;;;;;;;10.10;9.50;;;10.90;99.90;;;;;;4950629;28;20583;-81
2022/09/19 07:47:59;;;;;;;10.20;9.50;;;11.00;99.90;;;;;;4950469;29;20661;-81
2022/09/19 07:50:51;;;;;;;11.57;10.43;;;11.20;99.90;;;;;;4948959;28;20234;-81
2022/09/19 07:53:22;;;;;;;10.30;9.40;;;11.30;99.90;;;;;;4959736;28;20212;-81
2022/09/19 07:55:51;;;;;;;9.70;9.00;;;11.40;99.90;;;;;;4953668;28;20577;-81
2022/09/19 07:58:20;;;;;;;9.70;8.93;;;11.60;99.90;;;;;;4953647;28;20224;-81
2022/09/19 08:00:51;;;;;;;9.50;8.80;;;11.80;99.90;;;;;;4947482;29;20611;-80
2022/09/19 08:03:44;;;;;;;9.73;9.00;;;11.90;99.90;;;;;;4946663;28;21661;-80
2022/09/19 08:06:12;;;;;;;10.17;9.37;;;11.90;99.90;;;;;;4945567;28;20205;-80
2022/09/19 08:08:41;;;;;;;9.40;8.70;;;12.00;99.90;;;;;;4956854;28;20193;-81
2022/09/19 08:11:21;;;;;;;9.87;9.00;;;12.00;99.90;;;;;;4961258;28;20209;-81
2022/09/19 08:13:48;;;;;;;10.13;9.40;;;12.00;99.90;;;;;;4955434;29;20201;-81
2022/09/19 08:16:15;;;;;;;10.13;9.10;;;12.10;99.90;;;;;;4952544;28;20669;-80
2022/09/19 08:18:42;;;;;;;11.40;10.17;;;12.10;99.90;;;;;;4957176;28;20287;-80
2022/09/19 08:21:10;;;;;;;11.70;10.60;;;12.20;99.90;;;;;;4964138;28;20209;-81
2022/09/19 08:23:38;;;;;;;10.73;9.73;;;12.40;99.90;;;;;;4960486;29;20198;-81
2022/09/19 08:26:05;;;;;;;11.07;10.17;;;12.40;99.90;;;;;;4965945;28;20201;-81
2022/09/19 08:28:34;;;;;;;12.77;9.23;;;12.50;99.90;;;;;;4981974;28;20196;-81
2022/09/19 08:31:03;;;;;;;10.20;9.50;;;12.50;99.90;;;;;;4960638;28;20597;-81
2022/09/19 08:33:34;;;;;;;10.07;9.20;;;12.60;99.90;;;;;;4955974;28;20206;-80
2022/09/19 08:36:02;;;;;;;9.83;9.10;;;12.70;99.90;;;;;;4956534;28;20209;-81
2022/09/19 08:38:33;;;;;;;10.03;9.27;;;12.70;99.90;;;;;;4955850;28;20218;-81
2022/09/19 08:41:23;;;;;;;10.23;9.33;;;12.70;99.90;;;;;;4956403;28;20202;-81
2022/09/19 08:43:58;;;;;;;10.33;9.53;;;12.70;99.90;;;;;;4957924;29;20638;-81
2022/09/19 08:46:33;;;;;;;9.83;9.03;;;12.60;99.90;;;;;;4952234;28;20237;-81
2022/09/19 08:49:04;;;;;;;10.90;9.10;;;12.60;99.90;;;;;;4953529;29;20245;-81
2022/09/19 08:51:47;;;;;;;10.13;9.23;;;12.50;99.90;;;;;;4955800;28;20303;-81
2022/09/19 08:54:18;;;;;;;10.20;9.20;;;12.60;99.90;;;;;;4974243;28;20202;-81
2022/09/19 08:56:47;;;;;;;12.07;9.67;;;12.70;99.90;;;;;;4958424;28;20240;-81
2022/09/19 08:59:20;;;;;;;10.80;9.13;;;12.80;99.90;;;;;;4963644;28;20236;-81
2022/09/19 09:01:58;;;;;;;9.67;8.87;;;12.90;99.90;;;;;;4962654;28;20201;-82
2022/09/19 09:04:41;;;;;;;10.33;9.50;;;13.10;99.90;;;;;;4963721;28;20212;-81
2022/09/19 09:07:23;;;;;;;9.77;8.93;;;13.20;99.90;;;;;;4956089;28;20558;-81
2022/09/19 09:10:21;;;;;;;9.90;9.10;;;13.20;99.90;;;;;;4962267;28;20218;-81
2022/09/19 09:12:59;;;;;;;11.27;10.07;;;13.10;99.90;;;;;;4964056;28;20241;-81
2022/09/19 09:15:32;;;;;;;10.57;9.87;;;13.10;99.90;;;;;;4952348;29;20195;-81
2022/09/19 09:18:17;;;;;;;10.40;9.40;;;13.10;99.90;;;;;;4964000;28;20213;-81
2022/09/19 09:20:49;;;;;;;10.43;9.53;;;13.10;99.90;;;;;;4969619;28;20225;-81
2022/09/19 09:23:23;;;;;;;10.50;9.80;;;13.30;99.90;;;;;;4962942;28;20208;-81
2022/09/19 09:26:02;;;;;;;10.37;9.50;;;13.30;99.90;;;;;;4962341;28;20211;-81
2022/09/19 09:28:41;;;;;;;15.13;9.60;;;13.40;99.90;;;;;;4962103;28;20190;-81
2022/09/19 09:31:28;;;;;;;10.07;9.17;;;13.50;99.90;;;;;;4962213;28;20241;-81
2022/09/19 09:34:06;;;;;;;9.60;8.90;;;13.50;99.90;;;;;;4954133;28;20672;-81
2022/09/19 09:36:39;;;;;;;9.70;8.80;;;13.50;99.90;;;;;;4951576;29;20659;-82
2022/09/19 09:39:16;;;;;;;9.23;8.57;;;13.60;99.90;;;;;;4960655;28;20606;-81
2022/09/19 09:41:47;;;;;;;10.10;9.10;;;13.90;99.90;;;;;;4962670;28;20194;-81
2022/09/19 09:44:32;;;;;;;10.30;9.40;;;14.00;99.90;;;;;;4961051;28;20624;-81
2022/09/19 09:47:13;;;;;;;9.60;8.70;;;14.20;99.90;;;;;;4964753;28;20190;-81
2022/09/19 09:49:42;;;;;;;9.80;9.03;;;14.20;99.90;;;;;;4973846;28;20313;-82
2022/09/19 09:52:28;;;;;;;10.13;9.10;;;14.20;99.90;;;;;;4962391;28;20198;-81
2022/09/19 09:58:05;;;;;;;9.53;8.63;;;14.20;99.90;;;;;;4958447;28;20210;-81
2022/09/19 10:03:36;;;;;;;9.40;8.57;;;14.30;99.90;;;;;;4953753;28;20238;-81
2022/09/19 10:06:17;;;;;;;8.67;8.07;;;14.50;99.90;;;;;;4957496;28;20204;-80
2022/09/19 10:08:58;;;;;;;8.87;8.07;;;14.60;99.90;;;;;;4948394;28;20223;-80
2022/09/19 10:11:37;;;;;;;8.63;8.00;;;14.70;99.90;;;;;;4960974;29;20465;-80
2022/09/19 10:14:08;;;;;;;8.50;7.87;;;14.60;99.90;;;;;;4960940;28;20209;-80
2022/09/19 10:16:37;;;;;;;8.37;7.77;;;14.30;99.90;;;;;;4953191;28;20225;-81
2022/09/19 10:19:22;;;;;;;8.60;8.10;;;14.20;99.90;;;;;;4963314;28;20301;-80
2022/09/19 10:21:50;;;;;;;8.80;8.20;;;14.00;99.90;;;;;;4956796;28;20287;-81
2022/09/19 10:24:40;;;;;;;8.83;8.17;;;13.80;99.90;;;;;;4953320;28;20230;-80
2022/09/19 10:27:11;;;;;;;9.30;8.70;;;13.60;99.90;;;;;;4961831;28;20454;-80
2022/09/19 10:29:51;;;;;;;8.50;7.90;;;13.50;99.90;;;;;;4949821;29;20223;-80
2022/09/19 10:32:22;;;;;;;10.23;9.43;;;13.50;99.90;;;;;;4952876;28;20211;-81
2022/09/19 10:35:25;;;;;;;8.93;8.23;;;13.60;99.90;;;;;;4970873;28;20218;-80
2022/09/19 10:37:53;;;;;;;8.67;7.97;;;13.70;99.90;;;;;;4960630;28;20252;-81
2022/09/19 10:40:20;;;;;;;9.07;8.33;;;13.70;99.90;;;;;;4950479;28;20260;-80
2022/09/19 10:42:48;;;;;;;9.20;8.47;;;13.70;99.90;;;;;;4951825;29;20291;-80
2022/09/19 10:45:28;;;;;;;9.00;8.30;;;13.80;99.90;;;;;;4947829;28;20189;-80
2022/09/19 10:48:03;;;;;;;9.40;8.80;;;14.00;99.90;;;;;;4950359;29;20260;-80
2022/09/19 10:50:32;;;;;;;9.30;8.60;;;14.20;99.90;;;;;;4944610;29;20219;-80
2022/09/19 10:53:17;;;;;;;11.77;10.70;;;14.40;99.90;;;;;;4961043;28;20252;-81
2022/09/19 10:55:45;;;;;;;5.80;4.70;;;14.50;99.90;;;;;;4949894;29;20324;-80
2022/09/19 10:58:18;;;;;;;9.93;9.03;;;14.60;99.90;;;;;;4959122;28;20217;-80
2022/09/19 11:00:53;;;;;;;8.50;7.90;;;14.50;99.90;;;;;;4948539;28;20231;-81
2022/09/19 11:03:26;;;;;;;8.20;7.70;;;14.50;99.90;;;;;;4950477;28;20202;-80
2022/09/19 11:06:08;;;;;;;5.20;4.43;;;14.70;99.90;;;;;;4965915;28;20197;-81
2022/09/19 11:08:44;;;;;;;9.67;8.90;;;14.90;99.90;;;;;;4949312;28;20253;-80
2022/09/19 11:11:23;;;;;;;9.80;9.20;;;15.10;99.90;;;;;;4952001;28;20273;-81
2022/09/19 11:14:08;;;;;;;9.40;8.70;;;15.20;99.90;;;;;;4943418;28;20207;-80
2022/09/19 11:16:42;;;;;;;10.33;9.57;;;15.30;99.90;;;;;;4952598;28;20207;-80
2022/09/19 11:19:26;;;;;;;7.53;3.07;;;15.30;99.90;;;;;;4960089;28;20715;-80
2022/09/19 11:22:02;;;;;;;6.00;5.50;;;15.20;99.90;;;;;;4950679;28;20696;-81
2022/09/19 11:24:42;;;;;;;3.87;2.63;;;15.00;99.90;;;;;;4951512;28;20244;-81
2022/09/19 11:27:25;;;;;;;9.47;8.67;;;14.80;99.90;;;;;;4950949;28;20229;-80
2022/09/19 11:30:12;;;;;;;9.23;8.53;;;14.60;99.90;;;;;;4951894;29;20226;-80
2022/09/19 11:33:16;;;;;;;9.47;8.87;;;14.40;99.90;;;;;;4946865;28;20580;-81
2022/09/19 11:36:22;;;;;;;9.20;8.60;;;14.30;99.90;;;;;;4964369;28;20214;-79
2022/09/19 11:38:56;;;;;;;8.70;8.10;;;14.40;99.90;;;;;;4969551;28;20273;-81
2022/09/19 11:41:35;;;;;;;8.70;8.10;;;14.40;99.90;;;;;;4948342;28;20206;-81
2022/09/19 11:44:20;;;;;;;9.00;8.30;;;14.50;99.90;;;;;;4951204;28;20453;-81
2022/09/19 11:47:00;;;;;;;10.17;9.37;;;14.70;99.90;;;;;;4953427;29;20203;-81
2022/09/19 11:49:51;;;;;;;9.37;8.70;;;14.70;99.90;;;;;;4942974;29;20229;-81
2022/09/19 11:52:27;;;;;;;8.70;8.07;;;14.90;99.90;;;;;;4951644;28;20224;-81
2022/09/19 11:55:10;;;;;;;8.90;8.30;;;15.40;99.90;;;;;;4953384;28;20669;-82
2022/09/19 11:57:41;;;;;;;9.70;9.00;;;15.80;99.90;;;;;;4942731;29;20735;-81
2022/09/19 12:00:17;;;;;;;9.47;8.67;;;15.90;99.90;;;;;;4949794;28;20225;-82
2022/09/19 12:03:26;;;;;;;3.07;2.33;;;15.90;99.90;;;;;;4959916;28;20205;-82
2022/09/19 12:06:25;;;;;;;9.83;9.07;;;15.80;99.90;;;;;;4960850;28;20567;-80
2022/09/19 12:09:17;;;;;;;8.70;8.10;;;15.70;99.90;;;;;;4944587;29;20195;-80
2022/09/19 12:11:50;;;;;;;4.03;2.50;;;15.50;99.90;;;;;;4947777;29;20629;-80
2022/09/19 12:14:25;;;;;;;3.60;2.10;;;15.40;99.90;;;;;;4951504;28;20209;-80
2022/09/19 12:16:57;;;;;;;3.07;2.37;;;15.30;99.90;;;;;;4951542;29;20206;-80
2022/09/19 12:19:28;;;;;;;4.43;2.40;;;15.20;99.90;;;;;;4966902;28;20224;-80
2022/09/19 12:22:00;;;;;;;2.90;2.20;;;15.00;99.90;;;;;;4951207;28;20212;-80
2022/09/19 12:24:52;;;;;;;2.80;2.33;;;14.80;99.90;;;;;;4965020;28;20194;-80
2022/09/19 12:27:26;;;;;;;8.73;8.03;;;14.80;99.90;;;;;;4950591;28;20208;-80
2022/09/19 12:30:05;;;;;;;8.57;8.07;;;14.80;99.90;;;;;;4953061;28;20223;-79
2022/09/19 12:32:40;;;;;;;7.13;6.63;;;15.00;99.90;;;;;;4942372;28;20709;-79
2022/09/19 12:35:17;;;;;;;8.67;8.07;;;15.10;99.90;;;;;;4950591;28;20203;-80
2022/09/19 12:37:50;;;;;;;8.40;7.80;;;15.30;99.90;;;;;;4945146;29;20596;-79
2022/09/19 12:40:28;;;;;;;7.17;6.63;;;15.40;99.90;;;;;;4950468;28;20223;-80
2022/09/19 12:43:01;;;;;;;7.57;7.07;;;15.50;99.90;;;;;;4949112;29;20288;-80
2022/09/19 12:45:35;;;;;;;6.17;5.73;;;15.60;99.90;;;;;;4942640;29;20277;-80
2022/09/19 12:48:12;;;;;;;6.43;5.83;;;15.60;99.90;;;;;;4956215;28;20194;-80
2022/09/19 12:50:51;;;;;;;8.20;7.60;;;15.50;99.90;;;;;;4951083;28;20307;-79
2022/09/19 12:53:27;;;;;;;2.73;2.00;;;15.30;99.90;;;;;;4967309;28;20206;-80
2022/09/19 12:56:03;;;;;;;3.10;2.80;;;15.10;99.90;;;;;;4967431;28;20193;-80
2022/09/19 12:58:37;;;;;;;2.60;2.40;;;15.00;99.90;;;;;;4965172;28;20774;-80
2022/09/19 13:01:19;;;;;;;9.23;8.53;;;14.90;99.90;;;;;;4964892;28;20196;-80
2022/09/19 13:03:53;;;;;;;7.73;7.23;;;14.80;99.90;;;;;;4951056;28;20213;-80
2022/09/19 13:06:25;;;;;;;8.60;8.00;;;14.90;99.90;;;;;;4970194;28;20203;-80
2022/09/19 13:09:02;;;;;;;8.00;7.50;;;15.00;99.90;;;;;;4955012;29;20202;-80
2022/09/19 13:11:36;;;;;;;9.50;8.90;;;15.10;99.90;;;;;;4943059;29;20203;-80
2022/09/19 13:14:13;;;;;;;6.03;5.30;;;15.30;99.90;;;;;;4969426;28;20207;-80
2022/09/19 13:23:30;;;;;;;8.97;8.20;;;15.40;99.90;;;;;;4975574;28;20602;-81
2022/09/19 13:25:08;;;;;;;8.80;8.20;;;15.40;99.90;;;;;;4950144;28;20234;-81
2022/09/19 13:27:36;;;;;;;8.70;8.10;;;15.40;99.90;;;;;;4955083;29;20216;-82
2022/09/19 13:30:03;;;;;;;8.20;7.70;;;15.30;99.90;;;;;;4949592;28;20237;-81
2022/09/19 13:32:54;;;;;;;8.43;7.80;;;15.40;99.90;;;;;;4959799;28;20204;-81
2022/09/19 13:35:25;;;;;;;8.20;7.60;;;15.40;99.90;;;;;;4952720;28;20192;-81
2022/09/19 13:38:00;;;;;;;7.90;7.40;;;15.50;99.90;;;;;;4955086;28;20233;-81
2022/09/19 13:40:56;;;;;;;8.77;7.87;;;15.70;99.90;;;;;;4952056;29;20219;-81